sensor_id;sensor_type;location;lat;lon;timestamp;noise_LAeq;noise_LA_min;noise_LA_max;noise_LA01;noise_LA95
64079;Laerm;51042;49.696;10.808;2022-10-30T00:00:34;52.36;37.90;69.82;;
64079;Laerm;51042;49.696;10.808;2022-10-30T00:03:00;48.34;36.89;65.93;;
64079;Laerm;51042;49.696;10.808;2022-10-30T00:05:25;53.91;36.46;69.26;;
64079;Laerm;51042;49.696;10.808;2022-10-30T00:07:51;39.47;36.86;45.80;;
64079;Laerm;51042;49.696;10.808;2022-10-30T00:10:18;53.84;37.22;68.16;;
64079;Laerm;51042;49.696;10.808;2022-10-30T00:12:44;47.08;36.86;61.71;;
64079;Laerm;51042;49.696;10.808;2022-10-30T00:15:09;39.49;36.92;41.80;;
64079;Laerm;51042;49.696;10.808;2022-10-30T00:17:35;53.26;36.77;72.03;;
64079;Laerm;51042;49.696;10.808;2022-10-30T00:20:00;39.65;36.65;42.77;;
64079;Laerm;51042;49.696;10.808;2022-10-30T00:22:25;40.47;37.87;42.97;;
64079;Laerm;51042;49.696;10.808;2022-10-30T00:24:51;40.01;37.34;42.63;;
64079;Laerm;51042;49.696;10.808;2022-10-30T00:27:16;40.01;37.48;42.54;;
64079;Laerm;51042;49.696;10.808;2022-10-30T00:29:42;40.27;37.56;50.07;;
64079;Laerm;51042;49.696;10.808;2022-10-30T00:32:07;50.09;37.80;64.25;;
64079;Laerm;51042;49.696;10.808;2022-10-30T00:34:32;39.94;36.90;42.58;;
64079;Laerm;51042;49.696;10.808;2022-10-30T00:36:58;50.44;37.54;68.45;;
64079;Laerm;51042;49.696;10.808;2022-10-30T00:39:23;44.94;37.37;62.53;;
64079;Laerm;51042;49.696;10.808;2022-10-30T00:41:48;46.02;36.91;62.22;;
64079;Laerm;51042;49.696;10.808;2022-10-30T00:44:36;52.32;37.47;75.78;;
64079;Laerm;51042;49.696;10.808;2022-10-30T00:47:15;45.46;37.22;62.33;;
64079;Laerm;51042;49.696;10.808;2022-10-30T00:49:49;41.79;37.72;57.60;;
64079;Laerm;51042;49.696;10.808;2022-10-30T00:52:16;40.03;37.46;42.43;;
64079;Laerm;51042;49.696;10.808;2022-10-30T00:54:41;56.98;38.11;73.66;;
64079;Laerm;51042;49.696;10.808;2022-10-30T00:57:08;45.17;37.82;62.05;;
64079;Laerm;51042;49.696;10.808;2022-10-30T00:59:34;50.16;37.55;70.08;;
64079;Laerm;51042;49.696;10.808;2022-10-30T01:02:02;59.88;38.23;75.91;;
64079;Laerm;51042;49.696;10.808;2022-10-30T01:04:28;49.03;37.64;66.31;;
64079;Laerm;51042;49.696;10.808;2022-10-30T01:06:57;51.12;37.69;71.67;;
64079;Laerm;51042;49.696;10.808;2022-10-30T01:09:23;49.63;37.85;77.61;;
64079;Laerm;51042;49.696;10.808;2022-10-30T01:11:49;53.57;37.29;71.69;;
64079;Laerm;51042;49.696;10.808;2022-10-30T01:14:17;40.73;37.49;47.75;;
64079;Laerm;51042;49.696;10.808;2022-10-30T01:17:10;51.66;37.29;67.67;;
64079;Laerm;51042;49.696;10.808;2022-10-30T01:22:58;56.79;37.58;77.49;;
64079;Laerm;51042;49.696;10.808;2022-10-30T01:34:18;48.86;38.06;73.87;;
64079;Laerm;51042;49.696;10.808;2022-10-30T01:36:55;54.82;38.19;69.93;;
64079;Laerm;51042;49.696;10.808;2022-10-30T01:39:24;41.40;37.99;47.58;;
64079;Laerm;51042;49.696;10.808;2022-10-30T01:41:50;51.71;38.52;65.98;;
64079;Laerm;51042;49.696;10.808;2022-10-30T01:44:20;41.06;37.94;43.96;;
64079;Laerm;51042;49.696;10.808;2022-10-30T02:00:11;44.06;37.99;55.55;;
64079;Laerm;51042;49.696;10.808;2022-10-30T02:02:38;41.10;38.16;43.95;;
64079;Laerm;51042;49.696;10.808;2022-10-30T02:05:05;41.04;38.11;43.82;;
64079;Laerm;51042;49.696;10.808;2022-10-30T02:07:31;40.92;38.15;43.44;;
64079;Laerm;51042;49.696;10.808;2022-10-30T02:09:56;41.04;38.39;43.62;;
64079;Laerm;51042;49.696;10.808;2022-10-30T02:12:22;40.84;38.20;43.64;;
64079;Laerm;51042;49.696;10.808;2022-10-30T02:14:55;40.86;37.99;43.67;;
64079;Laerm;51042;49.696;10.808;2022-10-30T02:17:22;40.98;37.54;44.21;;
64079;Laerm;51042;49.696;10.808;2022-10-30T02:19:48;48.40;38.02;74.07;;
64079;Laerm;51042;49.696;10.808;2022-10-30T02:22:13;48.97;37.36;64.02;;
64079;Laerm;51042;49.696;10.808;2022-10-30T02:24:38;40.66;37.90;43.48;;
64079;Laerm;51042;49.696;10.808;2022-10-30T02:27:04;40.44;37.18;43.28;;
64079;Laerm;51042;49.696;10.808;2022-10-30T02:29:29;40.60;37.34;47.39;;
64079;Laerm;51042;49.696;10.808;2022-10-30T02:31:54;40.32;37.20;43.28;;
64079;Laerm;51042;49.696;10.808;2022-10-30T02:34:20;40.32;37.60;43.92;;
64079;Laerm;51042;49.696;10.808;2022-10-30T02:36:45;40.48;37.66;44.81;;
64079;Laerm;51042;49.696;10.808;2022-10-30T02:39:10;49.79;37.50;66.75;;
64079;Laerm;51042;49.696;10.808;2022-10-30T02:41:36;49.55;37.21;66.84;;
64079;Laerm;51042;49.696;10.808;2022-10-30T02:44:02;53.14;36.50;72.82;;
64079;Laerm;51042;49.696;10.808;2022-10-30T02:46:28;39.83;37.03;43.76;;
64079;Laerm;51042;49.696;10.808;2022-10-30T02:48:53;39.57;36.92;44.49;;
64079;Laerm;51042;49.696;10.808;2022-10-30T02:51:18;48.84;37.01;65.45;;
64079;Laerm;51042;49.696;10.808;2022-10-30T02:53:44;39.82;37.26;43.59;;
64079;Laerm;51042;49.696;10.808;2022-10-30T02:56:11;39.64;37.14;42.37;;
64079;Laerm;51042;49.696;10.808;2022-10-30T02:58:37;39.11;36.60;43.24;;
64079;Laerm;51042;49.696;10.808;2022-10-30T03:03:31;39.16;36.46;42.42;;
64079;Laerm;51042;49.696;10.808;2022-10-30T03:05:59;39.30;36.55;42.98;;
64079;Laerm;51042;49.696;10.808;2022-10-30T03:08:24;51.90;36.71;77.53;;
64079;Laerm;51042;49.696;10.808;2022-10-30T03:10:49;53.12;36.82;72.84;;
64079;Laerm;51042;49.696;10.808;2022-10-30T03:13:15;49.09;36.58;65.42;;
64079;Laerm;51042;49.696;10.808;2022-10-30T03:15:40;52.40;36.99;67.31;;
64079;Laerm;51042;49.696;10.808;2022-10-30T03:18:05;52.33;37.03;71.55;;
64079;Laerm;51042;49.696;10.808;2022-10-30T03:20:30;50.49;36.96;66.60;;
64079;Laerm;51042;49.696;10.808;2022-10-30T03:22:56;39.79;36.91;42.52;;
64079;Laerm;51042;49.696;10.808;2022-10-30T03:25:21;53.19;37.38;75.12;;
64079;Laerm;51042;49.696;10.808;2022-10-30T03:27:47;50.35;37.24;68.45;;
64079;Laerm;51042;49.696;10.808;2022-10-30T03:30:13;39.95;37.26;43.38;;
64079;Laerm;51042;49.696;10.808;2022-10-30T03:32:38;39.82;36.93;44.54;;
64079;Laerm;51042;49.696;10.808;2022-10-30T03:35:03;39.59;36.93;54.63;;
64079;Laerm;51042;49.696;10.808;2022-10-30T03:37:29;39.26;36.13;42.00;;
64079;Laerm;51042;49.696;10.808;2022-10-30T03:39:54;40.19;36.59;45.35;;
64079;Laerm;51042;49.696;10.808;2022-10-30T03:42:19;40.02;36.67;43.48;;
64079;Laerm;51042;49.696;10.808;2022-10-30T03:44:45;39.98;37.15;44.07;;
64079;Laerm;51042;49.696;10.808;2022-10-30T03:47:10;39.95;37.39;42.85;;
64079;Laerm;51042;49.696;10.808;2022-10-30T03:49:35;39.49;36.90;42.52;;
64079;Laerm;51042;49.696;10.808;2022-10-30T03:52:01;39.27;36.94;41.59;;
64079;Laerm;51042;49.696;10.808;2022-10-30T03:54:26;39.85;36.75;56.65;;
64079;Laerm;51042;49.696;10.808;2022-10-30T03:56:51;41.49;36.83;54.97;;
64079;Laerm;51042;49.696;10.808;2022-10-30T03:59:16;50.66;36.97;67.83;;
64079;Laerm;51042;49.696;10.808;2022-10-30T04:01:42;52.94;36.76;71.02;;
64079;Laerm;51042;49.696;10.808;2022-10-30T04:04:07;58.48;37.36;76.16;;
64079;Laerm;51042;49.696;10.808;2022-10-30T04:06:32;46.32;37.31;62.56;;
64079;Laerm;51042;49.696;10.808;2022-10-30T04:08:57;54.07;37.04;74.19;;
64079;Laerm;51042;49.696;10.808;2022-10-30T04:11:23;55.73;37.30;74.89;;
64079;Laerm;51042;49.696;10.808;2022-10-30T04:13:48;41.30;37.00;53.03;;
64079;Laerm;51042;49.696;10.808;2022-10-30T04:16:13;39.51;37.16;42.53;;
64079;Laerm;51042;49.696;10.808;2022-10-30T04:18:39;39.32;36.65;45.70;;
64079;Laerm;51042;49.696;10.808;2022-10-30T04:21:04;48.07;36.24;65.27;;
64079;Laerm;51042;49.696;10.808;2022-10-30T04:23:30;53.71;37.18;72.26;;
64079;Laerm;51042;49.696;10.808;2022-10-30T04:25:55;39.51;36.66;42.81;;
64079;Laerm;51042;49.696;10.808;2022-10-30T04:28:20;54.07;37.22;70.55;;
64079;Laerm;51042;49.696;10.808;2022-10-30T04:30:46;43.25;37.14;63.10;;
64079;Laerm;51042;49.696;10.808;2022-10-30T04:33:12;48.82;37.30;67.45;;
64079;Laerm;51042;49.696;10.808;2022-10-30T04:35:39;49.07;37.18;73.93;;
64079;Laerm;51042;49.696;10.808;2022-10-30T04:38:07;39.99;36.81;43.20;;
64079;Laerm;51042;49.696;10.808;2022-10-30T04:40:36;53.12;37.91;71.82;;
64079;Laerm;51042;49.696;10.808;2022-10-30T04:43:02;48.98;37.80;74.13;;
64079;Laerm;51042;49.696;10.808;2022-10-30T04:45:27;52.68;37.49;76.93;;
64079;Laerm;51042;49.696;10.808;2022-10-30T04:47:59;53.98;37.26;78.43;;
64079;Laerm;51042;49.696;10.808;2022-10-30T04:50:24;56.22;37.07;72.85;;
64079;Laerm;51042;49.696;10.808;2022-10-30T04:52:57;39.55;36.71;44.98;;
64079;Laerm;51042;49.696;10.808;2022-10-30T04:55:23;50.17;36.91;65.91;;
64079;Laerm;51042;49.696;10.808;2022-10-30T04:57:48;51.17;37.06;68.41;;
64079;Laerm;51042;49.696;10.808;2022-10-30T05:00:13;41.26;37.22;58.77;;
64079;Laerm;51042;49.696;10.808;2022-10-30T05:02:39;39.86;37.36;45.21;;
64079;Laerm;51042;49.696;10.808;2022-10-30T05:05:04;41.67;37.20;52.13;;
64079;Laerm;51042;49.696;10.808;2022-10-30T05:07:30;40.13;37.27;46.27;;
64079;Laerm;51042;49.696;10.808;2022-10-30T05:09:55;54.02;37.29;73.77;;
64079;Laerm;51042;49.696;10.808;2022-10-30T05:12:20;39.74;37.02;56.94;;
64079;Laerm;51042;49.696;10.808;2022-10-30T05:14:46;40.64;37.35;55.27;;
64079;Laerm;51042;49.696;10.808;2022-10-30T05:17:11;41.49;36.98;53.81;;
64079;Laerm;51042;49.696;10.808;2022-10-30T05:19:37;54.00;37.34;72.38;;
64079;Laerm;51042;49.696;10.808;2022-10-30T05:22:02;50.24;37.64;67.35;;
64079;Laerm;51042;49.696;10.808;2022-10-30T05:24:27;42.28;36.95;55.24;;
64079;Laerm;51042;49.696;10.808;2022-10-30T05:26:52;41.23;37.24;55.30;;
64079;Laerm;51042;49.696;10.808;2022-10-30T05:29:18;41.16;37.35;49.79;;
64079;Laerm;51042;49.696;10.808;2022-10-30T05:31:43;53.42;38.11;79.20;;
64079;Laerm;51042;49.696;10.808;2022-10-30T05:34:08;53.02;38.06;72.55;;
64079;Laerm;51042;49.696;10.808;2022-10-30T05:36:34;54.48;37.49;70.19;;
64079;Laerm;51042;49.696;10.808;2022-10-30T05:38:59;41.57;37.34;56.73;;
64079;Laerm;51042;49.696;10.808;2022-10-30T05:41:27;44.98;37.12;59.38;;
64079;Laerm;51042;49.696;10.808;2022-10-30T05:43:52;40.29;37.35;46.22;;
64079;Laerm;51042;49.696;10.808;2022-10-30T05:46:18;41.03;36.91;52.18;;
64079;Laerm;51042;49.696;10.808;2022-10-30T05:48:43;53.35;37.33;67.23;;
64079;Laerm;51042;49.696;10.808;2022-10-30T05:51:08;49.46;36.76;66.81;;
64079;Laerm;51042;49.696;10.808;2022-10-30T05:53:34;48.66;37.26;65.36;;
64079;Laerm;51042;49.696;10.808;2022-10-30T05:55:59;52.77;37.34;73.87;;
64079;Laerm;51042;49.696;10.808;2022-10-30T05:58:25;50.26;37.92;67.29;;
64079;Laerm;51042;49.696;10.808;2022-10-30T06:00:50;54.44;38.25;70.00;;
64079;Laerm;51042;49.696;10.808;2022-10-30T06:03:16;50.56;37.40;68.37;;
64079;Laerm;51042;49.696;10.808;2022-10-30T06:05:44;41.25;37.42;65.84;;
64079;Laerm;51042;49.696;10.808;2022-10-30T06:08:10;40.45;37.01;51.31;;
64079;Laerm;51042;49.696;10.808;2022-10-30T06:10:35;51.10;36.74;67.98;;
64079;Laerm;51042;49.696;10.808;2022-10-30T06:13:04;48.67;37.96;62.95;;
64079;Laerm;51042;49.696;10.808;2022-10-30T06:15:30;50.98;38.27;68.03;;
64079;Laerm;51042;49.696;10.808;2022-10-30T06:17:56;54.34;38.34;71.91;;
64079;Laerm;51042;49.696;10.808;2022-10-30T06:20:24;53.48;38.46;72.18;;
64079;Laerm;51042;49.696;10.808;2022-10-30T06:22:56;60.61;38.74;78.05;;
64079;Laerm;51042;49.696;10.808;2022-10-30T06:25:23;59.70;38.33;80.18;;
64079;Laerm;51042;49.696;10.808;2022-10-30T06:27:48;54.44;38.67;68.69;;
64079;Laerm;51042;49.696;10.808;2022-10-30T06:30:14;51.46;38.36;70.47;;
64079;Laerm;51042;49.696;10.808;2022-10-30T06:32:39;52.65;37.86;70.06;;
64079;Laerm;51042;49.696;10.808;2022-10-30T06:35:05;56.91;38.03;72.92;;
64079;Laerm;51042;49.696;10.808;2022-10-30T06:37:30;59.15;37.94;75.30;;
64079;Laerm;51042;49.696;10.808;2022-10-30T06:39:55;56.93;38.26;70.89;;
64079;Laerm;51042;49.696;10.808;2022-10-30T06:42:21;56.35;37.89;71.40;;
64079;Laerm;51042;49.696;10.808;2022-10-30T06:44:46;51.18;37.93;67.60;;
64079;Laerm;51042;49.696;10.808;2022-10-30T06:47:13;57.49;37.90;73.94;;
64079;Laerm;51042;49.696;10.808;2022-10-30T06:49:38;51.12;38.42;68.80;;
64079;Laerm;51042;49.696;10.808;2022-10-30T06:52:04;53.35;38.38;69.17;;
64079;Laerm;51042;49.696;10.808;2022-10-30T06:54:29;51.12;38.11;70.00;;
64079;Laerm;51042;49.696;10.808;2022-10-30T06:56:54;57.68;38.71;72.69;;
64079;Laerm;51042;49.696;10.808;2022-10-30T06:59:19;55.21;38.78;71.46;;
64079;Laerm;51042;49.696;10.808;2022-10-30T07:01:45;50.92;37.70;67.97;;
64079;Laerm;51042;49.696;10.808;2022-10-30T07:04:10;51.92;37.54;66.23;;
64079;Laerm;51042;49.696;10.808;2022-10-30T07:06:35;59.79;39.12;79.18;;
64079;Laerm;51042;49.696;10.808;2022-10-30T07:09:01;57.38;38.48;77.05;;
64079;Laerm;51042;49.696;10.808;2022-10-30T07:11:26;57.83;39.46;72.28;;
64079;Laerm;51042;49.696;10.808;2022-10-30T07:13:51;54.94;38.29;72.83;;
64079;Laerm;51042;49.696;10.808;2022-10-30T07:16:16;54.09;38.75;69.76;;
64079;Laerm;51042;49.696;10.808;2022-10-30T07:18:42;52.45;38.82;70.41;;
64079;Laerm;51042;49.696;10.808;2022-10-30T07:21:07;56.84;38.62;70.87;;
64079;Laerm;51042;49.696;10.808;2022-10-30T07:23:32;53.71;38.75;67.63;;
64079;Laerm;51042;49.696;10.808;2022-10-30T07:25:58;57.86;38.75;72.66;;
64079;Laerm;51042;49.696;10.808;2022-10-30T07:28:23;56.38;38.21;80.33;;
64079;Laerm;51042;49.696;10.808;2022-10-30T07:30:48;49.84;37.92;67.19;;
64079;Laerm;51042;49.696;10.808;2022-10-30T07:33:14;57.71;38.76;77.28;;
64079;Laerm;51042;49.696;10.808;2022-10-30T07:35:40;61.67;39.52;74.72;;
64079;Laerm;51042;49.696;10.808;2022-10-30T07:38:09;54.63;38.26;72.08;;
64079;Laerm;51042;49.696;10.808;2022-10-30T07:40:35;52.53;38.30;66.58;;
64079;Laerm;51042;49.696;10.808;2022-10-30T07:43:01;43.47;38.56;69.96;;
64079;Laerm;51042;49.696;10.808;2022-10-30T07:45:27;57.48;38.53;73.28;;
64079;Laerm;51042;49.696;10.808;2022-10-30T07:47:53;59.13;38.96;73.47;;
64079;Laerm;51042;49.696;10.808;2022-10-30T07:50:19;56.99;38.73;70.64;;
64079;Laerm;51042;49.696;10.808;2022-10-30T07:52:45;57.25;38.32;72.29;;
64079;Laerm;51042;49.696;10.808;2022-10-30T07:55:10;55.09;38.31;69.43;;
64079;Laerm;51042;49.696;10.808;2022-10-30T07:57:39;57.79;38.87;72.74;;
64079;Laerm;51042;49.696;10.808;2022-10-30T08:00:07;64.60;39.18;80.04;;
64079;Laerm;51042;49.696;10.808;2022-10-30T08:02:33;57.17;39.00;70.63;;
64079;Laerm;51042;49.696;10.808;2022-10-30T08:04:59;63.07;40.89;87.29;;
64079;Laerm;51042;49.696;10.808;2022-10-30T08:07:31;58.01;38.93;69.95;;
64079;Laerm;51042;49.696;10.808;2022-10-30T08:09:57;62.98;42.37;80.35;;
64079;Laerm;51042;49.696;10.808;2022-10-30T08:12:23;60.07;41.77;76.25;;
64079;Laerm;51042;49.696;10.808;2022-10-30T08:14:49;59.96;39.87;71.59;;
64079;Laerm;51042;49.696;10.808;2022-10-30T08:17:14;62.23;39.82;77.50;;
64079;Laerm;51042;49.696;10.808;2022-10-30T08:19:39;62.14;42.50;72.38;;
64079;Laerm;51042;49.696;10.808;2022-10-30T08:22:05;59.78;38.97;74.50;;
64079;Laerm;51042;49.696;10.808;2022-10-30T08:24:30;60.01;39.45;72.61;;
64079;Laerm;51042;49.696;10.808;2022-10-30T08:26:56;61.36;42.25;72.67;;
64079;Laerm;51042;49.696;10.808;2022-10-30T08:29:21;60.04;38.25;73.90;;
64079;Laerm;51042;49.696;10.808;2022-10-30T08:31:48;61.80;39.21;76.28;;
64079;Laerm;51042;49.696;10.808;2022-10-30T08:34:13;53.87;37.22;77.98;;
64079;Laerm;51042;49.696;10.808;2022-10-30T08:36:39;58.78;37.40;71.71;;
64079;Laerm;51042;49.696;10.808;2022-10-30T08:39:04;58.61;37.63;73.36;;
64079;Laerm;51042;49.696;10.808;2022-10-30T08:41:29;57.02;36.85;69.52;;
64079;Laerm;51042;49.696;10.808;2022-10-30T08:43:54;59.74;37.36;74.19;;
64079;Laerm;51042;49.696;10.808;2022-10-30T08:46:20;61.05;37.45;75.90;;
64079;Laerm;51042;49.696;10.808;2022-10-30T08:48:45;60.07;37.30;75.70;;
64079;Laerm;51042;49.696;10.808;2022-10-30T08:51:10;62.60;38.28;78.28;;
64079;Laerm;51042;49.696;10.808;2022-10-30T08:53:36;53.83;37.23;66.99;;
64079;Laerm;51042;49.696;10.808;2022-10-30T08:56:01;64.34;38.07;90.68;;
64079;Laerm;51042;49.696;10.808;2022-10-30T08:58:27;60.96;39.26;74.46;;
64079;Laerm;51042;49.696;10.808;2022-10-30T09:00:52;59.45;36.97;75.02;;
64079;Laerm;51042;49.696;10.808;2022-10-30T09:03:17;60.38;37.15;72.64;;
64079;Laerm;51042;49.696;10.808;2022-10-30T09:05:43;57.89;36.23;76.60;;
64079;Laerm;51042;49.696;10.808;2022-10-30T09:08:08;59.17;36.02;83.72;;
64079;Laerm;51042;49.696;10.808;2022-10-30T09:10:33;60.01;39.29;71.66;;
64079;Laerm;51042;49.696;10.808;2022-10-30T09:12:59;61.63;40.74;79.02;;
64079;Laerm;51042;49.696;10.808;2022-10-30T09:15:26;67.69;38.24;84.65;;
64079;Laerm;51042;49.696;10.808;2022-10-30T09:18:00;58.43;37.85;71.27;;
64079;Laerm;51042;49.696;10.808;2022-10-30T09:20:26;58.66;37.22;71.27;;
64079;Laerm;51042;49.696;10.808;2022-10-30T09:22:51;64.25;36.37;80.07;;
64079;Laerm;51042;49.696;10.808;2022-10-30T09:25:17;61.29;37.25;74.98;;
64079;Laerm;51042;49.696;10.808;2022-10-30T09:27:43;66.49;37.26;85.96;;
64079;Laerm;51042;49.696;10.808;2022-10-30T09:30:08;62.26;37.87;77.03;;
64079;Laerm;51042;49.696;10.808;2022-10-30T09:32:34;62.23;37.73;82.92;;
64079;Laerm;51042;49.696;10.808;2022-10-30T09:34:59;59.99;37.25;72.98;;
64079;Laerm;51042;49.696;10.808;2022-10-30T09:37:24;62.94;46.90;71.37;;
64079;Laerm;51042;49.696;10.808;2022-10-30T09:39:51;62.22;41.09;73.90;;
64079;Laerm;51042;49.696;10.808;2022-10-30T09:52:32;62.30;46.19;73.82;;
64079;Laerm;51042;49.696;10.808;2022-10-30T09:55:19;62.22;37.33;74.89;;
64079;Laerm;51042;49.696;10.808;2022-10-30T10:00:36;62.44;48.28;73.02;;
64079;Laerm;51042;49.696;10.808;2022-10-30T10:03:21;60.64;37.09;71.71;;
64079;Laerm;51042;49.696;10.808;2022-10-30T10:05:53;61.24;36.77;80.09;;
64079;Laerm;51042;49.696;10.808;2022-10-30T10:08:27;61.67;44.60;75.86;;
64079;Laerm;51042;49.696;10.808;2022-10-30T10:11:03;64.22;47.28;78.70;;
64079;Laerm;51042;49.696;10.808;2022-10-30T10:14:03;62.74;41.01;73.37;;
64079;Laerm;51042;49.696;10.808;2022-10-30T10:16:34;59.06;37.65;72.11;;
64079;Laerm;51042;49.696;10.808;2022-10-30T10:19:25;64.50;42.73;77.69;;
64079;Laerm;51042;49.696;10.808;2022-10-30T10:22:01;60.05;38.78;70.28;;
64079;Laerm;51042;49.696;10.808;2022-10-30T10:24:33;61.55;38.33;72.48;;
64079;Laerm;51042;49.696;10.808;2022-10-30T10:29:59;60.71;39.42;76.00;;
64079;Laerm;51042;49.696;10.808;2022-10-30T10:35:17;63.15;46.18;76.30;;
64079;Laerm;51042;49.696;10.808;2022-10-30T10:38:02;63.08;43.10;76.61;;
64079;Laerm;51042;49.696;10.808;2022-10-30T10:41:07;69.86;43.65;89.76;;
64079;Laerm;51042;49.696;10.808;2022-10-30T10:52:09;61.19;37.49;71.41;;
64079;Laerm;51042;49.696;10.808;2022-10-30T10:54:49;60.99;40.99;75.79;;
64079;Laerm;51042;49.696;10.808;2022-10-30T10:57:33;63.07;39.13;72.02;;
64079;Laerm;51042;49.696;10.808;2022-10-30T11:00:15;61.70;37.00;76.34;;
64079;Laerm;51042;49.696;10.808;2022-10-30T11:02:53;62.75;38.07;75.16;;
64079;Laerm;51042;49.696;10.808;2022-10-30T11:07:49;64.52;41.96;90.99;;
64079;Laerm;51042;49.696;10.808;2022-10-30T11:10:21;62.57;41.06;76.06;;
64079;Laerm;51042;49.696;10.808;2022-10-30T11:12:48;63.51;45.17;74.47;;
64079;Laerm;51042;49.696;10.808;2022-10-30T11:15:25;60.02;41.14;69.97;;
64079;Laerm;51042;49.696;10.808;2022-10-30T11:20:40;63.19;43.50;77.62;;
64079;Laerm;51042;49.696;10.808;2022-10-30T11:26:03;62.38;41.08;72.06;;
64079;Laerm;51042;49.696;10.808;2022-10-30T11:31:37;65.34;46.29;80.77;;
64079;Laerm;51042;49.696;10.808;2022-10-30T11:36:41;62.62;37.86;75.95;;
64079;Laerm;51042;49.696;10.808;2022-10-30T11:39:15;64.96;44.11;78.80;;
64079;Laerm;51042;49.696;10.808;2022-10-30T11:41:42;62.69;40.04;73.95;;
64079;Laerm;51042;49.696;10.808;2022-10-30T11:44:10;66.57;46.86;81.19;;
64079;Laerm;51042;49.696;10.808;2022-10-30T11:46:36;62.22;38.48;72.27;;
64079;Laerm;51042;49.696;10.808;2022-10-30T11:49:02;60.58;39.56;75.88;;
64079;Laerm;51042;49.696;10.808;2022-10-30T11:51:33;65.44;45.53;80.16;;
64079;Laerm;51042;49.696;10.808;2022-10-30T11:54:00;62.44;44.70;75.37;;
64079;Laerm;51042;49.696;10.808;2022-10-30T11:56:26;61.80;42.95;75.26;;
64079;Laerm;51042;49.696;10.808;2022-10-30T11:58:54;61.64;38.68;74.78;;
64079;Laerm;51042;49.696;10.808;2022-10-30T12:01:26;62.55;39.94;73.09;;
64079;Laerm;51042;49.696;10.808;2022-10-30T12:03:53;61.80;37.35;73.29;;
64079;Laerm;51042;49.696;10.808;2022-10-30T12:11:43;60.70;37.26;71.19;;
64079;Laerm;51042;49.696;10.808;2022-10-30T12:14:23;61.44;37.33;78.34;;
64079;Laerm;51042;49.696;10.808;2022-10-30T12:16:53;63.02;38.45;81.58;;
64079;Laerm;51042;49.696;10.808;2022-10-30T12:19:22;59.57;42.54;72.46;;
64079;Laerm;51042;49.696;10.808;2022-10-30T12:21:53;65.98;39.18;84.69;;
64079;Laerm;51042;49.696;10.808;2022-10-30T12:24:33;60.21;38.43;74.88;;
64079;Laerm;51042;49.696;10.808;2022-10-30T12:27:02;62.14;41.38;76.30;;
64079;Laerm;51042;49.696;10.808;2022-10-30T12:32:10;62.82;38.21;77.36;;
64079;Laerm;51042;49.696;10.808;2022-10-30T12:35:07;61.76;41.95;72.01;;
64079;Laerm;51042;49.696;10.808;2022-10-30T12:37:39;64.21;44.89;81.52;;
64079;Laerm;51042;49.696;10.808;2022-10-30T12:40:16;61.56;38.05;75.36;;
64079;Laerm;51042;49.696;10.808;2022-10-30T12:43:08;60.29;38.45;73.48;;
64079;Laerm;51042;49.696;10.808;2022-10-30T12:45:41;60.54;38.51;75.74;;
64079;Laerm;51042;49.696;10.808;2022-10-30T12:48:26;61.90;42.22;73.40;;
64079;Laerm;51042;49.696;10.808;2022-10-30T12:51:20;66.43;41.22;84.38;;
64079;Laerm;51042;49.696;10.808;2022-10-30T12:56:45;63.97;46.04;90.56;;
64079;Laerm;51042;49.696;10.808;2022-10-30T12:59:32;61.41;40.11;75.58;;
64079;Laerm;51042;49.696;10.808;2022-10-30T13:02:37;65.86;47.12;91.14;;
64079;Laerm;51042;49.696;10.808;2022-10-30T13:05:15;66.88;51.23;83.70;;
64079;Laerm;51042;49.696;10.808;2022-10-30T13:07:50;63.26;47.94;77.64;;
64079;Laerm;51042;49.696;10.808;2022-10-30T13:10:34;64.01;44.44;78.36;;
64079;Laerm;51042;49.696;10.808;2022-10-30T13:13:14;62.71;39.58;73.30;;
64079;Laerm;51042;49.696;10.808;2022-10-30T13:15:46;64.33;45.86;77.51;;
64079;Laerm;51042;49.696;10.808;2022-10-30T13:18:18;63.06;40.20;75.34;;
64079;Laerm;51042;49.696;10.808;2022-10-30T13:23:27;65.25;48.33;77.98;;
64079;Laerm;51042;49.696;10.808;2022-10-30T13:28:46;61.22;37.54;73.77;;
64079;Laerm;51042;49.696;10.808;2022-10-30T13:31:54;64.49;39.75;80.59;;
64079;Laerm;51042;49.696;10.808;2022-10-30T13:34:33;62.86;47.81;73.06;;
64079;Laerm;51042;49.696;10.808;2022-10-30T13:40:18;62.24;36.92;78.41;;
64079;Laerm;51042;49.696;10.808;2022-10-30T13:42:49;66.52;40.04;84.00;;
64079;Laerm;51042;49.696;10.808;2022-10-30T13:48:05;61.27;42.86;73.90;;
64079;Laerm;51042;49.696;10.808;2022-10-30T13:51:01;63.75;45.26;78.37;;
64079;Laerm;51042;49.696;10.808;2022-10-30T13:53:34;64.98;42.78;78.53;;
64079;Laerm;51042;49.696;10.808;2022-10-30T13:56:00;63.80;42.27;77.20;;
64079;Laerm;51042;49.696;10.808;2022-10-30T13:58:43;59.06;41.97;71.38;;
64079;Laerm;51042;49.696;10.808;2022-10-30T14:01:18;62.49;38.97;78.00;;
64079;Laerm;51042;49.696;10.808;2022-10-30T14:03:55;60.34;42.10;71.56;;
64079;Laerm;51042;49.696;10.808;2022-10-30T14:06:49;59.62;36.18;74.93;;
64079;Laerm;51042;49.696;10.808;2022-10-30T14:12:40;61.04;38.13;74.57;;
64079;Laerm;51042;49.696;10.808;2022-10-30T14:14:46;59.70;36.95;73.25;;
64079;Laerm;51042;49.696;10.808;2022-10-30T14:17:16;61.34;38.76;74.62;;
64079;Laerm;51042;49.696;10.808;2022-10-30T14:22:29;64.33;38.14;84.51;;
64079;Laerm;51042;49.696;10.808;2022-10-30T14:24:55;60.34;39.10;73.40;;
64079;Laerm;51042;49.696;10.808;2022-10-30T14:27:31;59.00;37.58;72.24;;
64079;Laerm;51042;49.696;10.808;2022-10-30T14:29:58;61.32;38.55;73.60;;
64079;Laerm;51042;49.696;10.808;2022-10-30T14:39:54;61.34;40.78;71.57;;
64079;Laerm;51042;49.696;10.808;2022-10-30T14:42:36;62.87;43.62;75.19;;
64079;Laerm;51042;49.696;10.808;2022-10-30T14:45:13;64.35;38.20;88.44;;
64079;Laerm;51042;49.696;10.808;2022-10-30T14:47:51;63.14;43.75;78.42;;
64079;Laerm;51042;49.696;10.808;2022-10-30T14:58:28;63.30;39.76;81.88;;
64079;Laerm;51042;49.696;10.808;2022-10-30T15:06:33;66.77;44.92;81.24;;
64079;Laerm;51042;49.696;10.808;2022-10-30T15:14:31;60.17;39.23;74.76;;
64079;Laerm;51042;49.696;10.808;2022-10-30T15:16:58;64.81;39.90;83.75;;
64079;Laerm;51042;49.696;10.808;2022-10-30T15:19:24;63.43;46.04;75.74;;
64079;Laerm;51042;49.696;10.808;2022-10-30T15:21:54;63.14;40.08;74.67;;
64079;Laerm;51042;49.696;10.808;2022-10-30T15:24:22;64.08;39.47;81.26;;
64079;Laerm;51042;49.696;10.808;2022-10-30T15:26:53;61.23;40.81;71.97;;
64079;Laerm;51042;49.696;10.808;2022-10-30T15:29:26;63.21;39.65;79.28;;
64079;Laerm;51042;49.696;10.808;2022-10-30T15:32:14;65.65;50.02;74.83;;
64079;Laerm;51042;49.696;10.808;2022-10-30T15:34:55;58.39;40.01;70.15;;
64079;Laerm;51042;49.696;10.808;2022-10-30T15:37:21;64.64;42.37;84.33;;
64079;Laerm;51042;49.696;10.808;2022-10-30T15:39:47;60.66;40.70;73.56;;
64079;Laerm;51042;49.696;10.808;2022-10-30T15:42:13;62.30;45.08;74.14;;
64079;Laerm;51042;49.696;10.808;2022-10-30T15:44:41;58.27;40.60;72.97;;